Terminal Aerodrome Forecast
Issued by NWS Wichita, KS

Home | Current Version | Previous Version | Graphics & Text | Print | Product List | Glossary On
Versions: 1 2 3 4 5 6 7 8 9 10 11 12 13 14 15 16
219
FTUS43 KICT 170520
TAFICT
TAF
KICT 170520Z 1706/1806 VRB03KT P6SM SKC
     FM171600 19008KT P6SM SKC
     FM171800 19011KT P6SM SKC=

USA.gov is the U.S. government's official web portal to all federal, state and local government web resources and services.